createdAt,value
2022-12-07T00:02:04.128Z,10.15
2022-12-07T00:04:33.239Z,9.10
2022-12-07T00:07:03.031Z,8.68
2022-12-07T00:09:33.418Z,9.45
2022-12-07T00:12:02.848Z,8.60
2022-12-07T00:14:31.922Z,8.07
2022-12-07T00:17:02.219Z,8.98
2022-12-07T00:19:31.396Z,7.97
2022-12-07T00:22:00.696Z,8.43
2022-12-07T00:24:30.042Z,8.35
2022-12-07T00:27:00.883Z,7.68
2022-12-07T00:29:30.263Z,7.97
2022-12-07T00:31:59.581Z,8.60
2022-12-07T00:34:28.971Z,8.00
2022-12-07T00:36:58.249Z,7.93
2022-12-07T00:39:27.379Z,8.02
2022-12-07T00:41:56.781Z,8.27
2022-12-07T00:44:27.233Z,7.90
2022-12-07T00:46:56.816Z,9.20
2022-12-07T00:49:25.853Z,8.90
2022-12-07T00:51:55.445Z,8.02
2022-12-07T00:54:24.605Z,7.72
2022-12-07T00:56:54.027Z,8.43
2022-12-07T00:59:23.274Z,7.40
2022-12-07T01:01:53.915Z,8.18
2022-12-07T01:04:23.044Z,8.07
2022-12-07T01:06:52.406Z,6.97
2022-12-07T01:09:21.454Z,8.45
2022-12-07T01:11:50.763Z,8.35
2022-12-07T01:14:19.847Z,7.47
2022-12-07T01:16:49.271Z,7.25
2022-12-07T01:19:19.773Z,7.95
2022-12-07T01:21:49.130Z,6.70
2022-12-07T01:24:18.180Z,6.07
2022-12-07T01:26:47.567Z,7.45
2022-12-07T01:29:16.648Z,9.38
2022-12-07T01:31:45.954Z,10.27
2022-12-07T01:34:15.188Z,12.18
2022-12-07T01:36:45.946Z,9.90
2022-12-07T01:39:15.105Z,9.57
2022-12-07T01:41:44.958Z,7.85
2022-12-07T01:44:18.157Z,6.60
2022-12-07T01:46:48.968Z,5.78
2022-12-07T01:49:32.549Z,6.13
2022-12-07T01:52:12.697Z,6.43
2022-12-07T01:54:41.918Z,6.97
2022-12-07T01:57:12.072Z,6.93
2022-12-07T01:59:41.742Z,6.43
2022-12-07T02:02:19.880Z,6.55
2022-12-07T02:04:49.209Z,6.20
2022-12-07T02:07:20.976Z,7.10
2022-12-07T02:09:50.033Z,7.55
2022-12-07T02:12:19.568Z,7.25
2022-12-07T02:14:48.869Z,7.07
2022-12-07T02:17:41.134Z,6.75
2022-12-07T02:20:25.709Z,6.90
2022-12-07T02:23:36.896Z,6.60
2022-12-07T02:26:28.156Z,6.32
2022-12-07T02:29:22.070Z,6.60
2022-12-07T02:32:03.355Z,6.57
2022-12-07T02:34:43.344Z,5.60
2022-12-07T02:37:23.627Z,6.00
2022-12-07T02:40:00.255Z,6.63
2022-12-07T02:42:36.223Z,5.95
2022-12-07T02:45:09.260Z,6.28
2022-12-07T02:47:39.911Z,6.80
2022-12-07T02:50:10.476Z,5.78
2022-12-07T02:52:39.582Z,6.47
2022-12-07T02:55:10.601Z,6.30
2022-12-07T02:57:56.263Z,5.45
2022-12-07T03:00:27.212Z,5.82
2022-12-07T03:03:00.832Z,6.32
2022-12-07T03:06:02.116Z,5.43
2022-12-07T03:08:38.432Z,5.50
2022-12-07T03:11:11.183Z,5.55
2022-12-07T03:13:48.029Z,4.88
2022-12-07T03:16:22.599Z,5.57
2022-12-07T03:18:55.887Z,5.55
2022-12-07T03:21:29.469Z,5.20
2022-12-07T03:24:02.464Z,5.25
2022-12-07T03:26:37.769Z,5.80
2022-12-07T03:29:12.385Z,5.53
2022-12-07T03:36:49.448Z,5.07
2022-12-07T03:39:25.849Z,4.22
2022-12-07T03:41:56.580Z,3.85
2022-12-07T03:44:26.316Z,4.53
2022-12-07T03:47:03.861Z,4.60
2022-12-07T03:49:42.086Z,4.30
2022-12-07T03:52:22.736Z,4.45
2022-12-07T03:54:58.762Z,4.13
2022-12-07T03:57:30.671Z,4.43
2022-12-07T04:00:01.564Z,4.13
2022-12-07T04:02:41.622Z,3.90
2022-12-07T04:05:11.482Z,3.95
2022-12-07T04:07:43.254Z,3.60
2022-12-07T04:10:12.922Z,3.92
2022-12-07T04:12:42.321Z,4.53
2022-12-07T04:15:11.848Z,5.18
2022-12-07T04:17:41.257Z,4.68
2022-12-07T04:20:11.652Z,3.97
2022-12-07T04:22:42.520Z,3.78
2022-12-07T04:25:11.918Z,4.28
2022-12-07T04:27:41.484Z,4.53
2022-12-07T04:30:11.509Z,4.43
2022-12-07T04:32:40.908Z,4.15
2022-12-07T04:35:10.832Z,3.60
2022-12-07T04:37:42.935Z,3.63
2022-12-07T04:40:15.426Z,3.75
2022-12-07T04:42:44.889Z,3.28
2022-12-07T04:45:13.903Z,3.03
2022-12-07T04:47:43.545Z,2.80
2022-12-07T04:50:13.202Z,3.22
2022-12-07T04:52:43.992Z,3.53
2022-12-07T04:55:13.294Z,3.45
2022-12-07T04:57:42.726Z,2.90
2022-12-07T05:00:13.090Z,2.58
2022-12-07T05:02:42.447Z,2.92
2022-12-07T05:05:11.474Z,3.47
2022-12-07T05:07:40.928Z,3.22
2022-12-07T05:10:12.532Z,3.45
2022-12-07T05:12:41.921Z,3.40
2022-12-07T05:15:11.914Z,3.65
2022-12-07T05:17:41.463Z,3.58
2022-12-07T05:20:11.454Z,4.70
2022-12-07T05:22:40.854Z,5.68
2022-12-07T05:25:11.745Z,5.07
2022-12-07T05:27:41.110Z,5.25
2022-12-07T05:30:11.343Z,4.20
2022-12-07T05:32:40.737Z,4.30
2022-12-07T05:35:10.427Z,4.18
2022-12-07T05:37:39.785Z,4.70
2022-12-07T05:40:11.920Z,4.13
2022-12-07T05:42:42.403Z,3.63
2022-12-07T05:45:12.222Z,4.20
2022-12-07T05:47:41.668Z,3.65
2022-12-07T05:50:10.862Z,4.32
2022-12-07T05:52:40.283Z,3.70
2022-12-07T05:55:11.565Z,4.00
2022-12-07T05:57:41.012Z,4.45
2022-12-07T06:00:10.386Z,3.92
2022-12-07T06:02:41.877Z,4.00
2022-12-07T06:05:11.260Z,4.20
2022-12-07T06:07:40.619Z,4.80
2022-12-07T06:10:12.385Z,4.43
2022-12-07T06:12:43.638Z,4.25
2022-12-07T06:15:14.098Z,3.72
2022-12-07T06:17:43.500Z,2.92
2022-12-07T06:20:12.861Z,2.83
2022-12-07T06:22:42.383Z,2.78
2022-12-07T06:25:13.038Z,2.63
2022-12-07T06:27:42.421Z,3.05
2022-12-07T06:30:12.169Z,2.47
2022-12-07T06:32:41.472Z,2.65
2022-12-07T06:35:11.025Z,2.65
2022-12-07T06:37:40.448Z,3.20
2022-12-07T06:40:12.637Z,3.00
2022-12-07T06:42:42.692Z,2.17
2022-12-07T06:45:12.554Z,2.28
2022-12-07T06:47:42.558Z,2.40
2022-12-07T06:50:13.104Z,2.40
2022-12-07T06:52:42.500Z,2.10
2022-12-07T06:55:12.955Z,2.42
2022-12-07T06:57:42.345Z,2.55
2022-12-07T07:00:16.985Z,2.50
2022-12-07T07:02:50.875Z,2.25
2022-12-07T07:05:22.383Z,2.83
2022-12-07T07:08:20.928Z,2.03
2022-12-07T07:10:42.798Z,1.88
2022-12-07T07:13:12.322Z,2.25
2022-12-07T07:15:41.726Z,3.28
2022-12-07T07:18:11.169Z,3.25
2022-12-07T07:20:41.123Z,3.22
2022-12-07T07:23:10.561Z,2.85
2022-12-07T07:25:41.096Z,3.35
2022-12-07T07:28:10.669Z,4.05
2022-12-07T07:30:40.426Z,3.70
2022-12-07T07:33:09.905Z,3.60
2022-12-07T07:35:40.201Z,3.78
2022-12-07T07:38:10.032Z,4.05
2022-12-07T07:40:39.113Z,3.40
2022-12-07T07:43:09.799Z,4.38
2022-12-07T07:45:39.095Z,3.90
2022-12-07T07:48:08.850Z,3.53
2022-12-07T07:50:38.029Z,4.10
2022-12-07T07:53:07.419Z,3.55
2022-12-07T07:55:36.485Z,3.38
2022-12-07T07:58:05.885Z,3.45
2022-12-07T08:00:36.415Z,4.22
2022-12-07T08:03:05.884Z,4.38
2022-12-07T08:05:35.022Z,4.10
2022-12-07T08:08:04.565Z,3.83
2022-12-07T08:10:36.035Z,3.83
2022-12-07T08:13:14.549Z,4.43
2022-12-07T08:15:47.369Z,4.25
2022-12-07T08:18:17.641Z,4.03
2022-12-07T08:20:47.046Z,3.72
2022-12-07T08:23:16.372Z,4.47
2022-12-07T08:25:45.592Z,3.85
2022-12-07T08:28:15.038Z,3.80
2022-12-07T08:30:45.598Z,4.90
2022-12-07T08:33:15.081Z,4.82
2022-12-07T08:35:44.197Z,4.68
2022-12-07T08:38:13.650Z,4.18
2022-12-07T08:40:42.807Z,3.83
2022-12-07T08:43:12.414Z,4.30
2022-12-07T08:45:44.753Z,3.58
2022-12-07T08:48:18.427Z,3.65
2022-12-07T08:50:49.756Z,4.82
2022-12-07T08:53:19.909Z,6.18
2022-12-07T08:55:50.171Z,4.47
2022-12-07T08:58:19.624Z,4.05
2022-12-07T09:00:50.300Z,6.50
2022-12-07T09:03:20.002Z,5.65
2022-12-07T09:05:49.201Z,3.55
2022-12-07T09:08:19.031Z,3.88
2022-12-07T09:10:48.743Z,6.57
2022-12-07T09:13:18.216Z,4.13
2022-12-07T09:15:47.238Z,5.60
2022-12-07T09:18:18.227Z,3.72
2022-12-07T09:20:47.366Z,4.00
2022-12-07T09:23:16.774Z,4.85
2022-12-07T09:25:45.992Z,5.35
2022-12-07T09:28:15.463Z,5.18
2022-12-07T09:31:21.669Z,4.72
2022-12-07T09:33:39.893Z,6.00
2022-12-07T09:36:10.748Z,4.55
2022-12-07T09:38:40.126Z,5.45
2022-12-07T09:41:10.357Z,5.20
2022-12-07T09:43:41.878Z,5.13
2022-12-07T09:46:16.572Z,4.25
2022-12-07T09:48:48.288Z,4.97
2022-12-07T09:51:23.710Z,5.85
2022-12-07T09:53:55.504Z,4.47
2022-12-07T09:56:25.924Z,6.05
2022-12-07T09:59:01.001Z,6.28
2022-12-07T10:01:32.993Z,5.28
2022-12-07T10:04:14.009Z,4.45
2022-12-07T10:06:43.802Z,3.60
2022-12-07T10:09:14.292Z,4.00
2022-12-07T10:12:07.181Z,4.38
2022-12-07T10:17:41.047Z,4.53
2022-12-07T10:20:24.438Z,4.38
2022-12-07T10:23:06.374Z,5.03
2022-12-07T10:25:37.622Z,5.22
2022-12-07T10:28:16.084Z,5.15
2022-12-07T10:30:55.137Z,3.58
2022-12-07T10:33:33.609Z,4.65
2022-12-07T10:36:23.093Z,4.80
2022-12-07T10:38:54.919Z,4.57
2022-12-07T10:41:24.336Z,3.97
2022-12-07T10:43:55.740Z,4.25
2022-12-07T10:46:44.924Z,3.42
2022-12-07T10:50:02.031Z,3.28
2022-12-07T10:53:08.174Z,3.50
2022-12-07T10:55:52.981Z,4.00
2022-12-07T10:58:46.492Z,3.78
2022-12-07T11:01:24.268Z,4.10
2022-12-07T11:04:24.197Z,3.70
2022-12-07T11:07:01.735Z,3.83
2022-12-07T11:10:12.225Z,4.78
2022-12-07T11:12:55.042Z,6.88
2022-12-07T11:15:30.846Z,5.90
2022-12-07T11:18:08.192Z,6.15
2022-12-07T11:20:47.726Z,4.80
2022-12-07T11:23:27.943Z,4.80
2022-12-07T11:26:09.906Z,4.88
2022-12-07T11:28:59.135Z,4.50
2022-12-07T11:31:38.959Z,5.30
2022-12-07T11:34:18.914Z,4.90
2022-12-07T11:36:50.964Z,5.40
2022-12-07T11:39:28.932Z,5.97
2022-12-07T11:42:06.142Z,5.72
2022-12-07T11:44:42.487Z,5.82
2022-12-07T11:47:17.171Z,5.70
2022-12-07T11:49:54.067Z,5.80
2022-12-07T11:52:29.889Z,5.45
2022-12-07T11:55:02.346Z,5.13
2022-12-07T11:57:39.847Z,4.70
2022-12-07T12:00:17.665Z,4.32
2022-12-07T12:02:54.778Z,5.43
2022-12-07T12:05:25.995Z,5.10
2022-12-07T12:11:02.930Z,4.70
2022-12-07T12:17:33.299Z,5.70
2022-12-07T12:20:08.208Z,4.82
2022-12-07T12:22:41.982Z,5.95
2022-12-07T12:25:27.036Z,6.18
2022-12-07T12:27:59.221Z,7.57
2022-12-07T12:30:38.434Z,5.47
2022-12-07T12:33:16.016Z,7.55
2022-12-07T12:35:46.516Z,6.78
2022-12-07T12:38:50.883Z,6.32
2022-12-07T12:42:09.307Z,6.20
2022-12-07T12:45:07.461Z,6.68
2022-12-07T12:47:59.828Z,5.47
2022-12-07T12:50:31.867Z,5.00
2022-12-07T12:53:20.860Z,4.85
2022-12-07T12:56:26.061Z,6.68
2022-12-07T12:59:26.092Z,6.93
2022-12-07T13:01:58.455Z,5.80
2022-12-07T13:05:04.075Z,6.13
2022-12-07T13:07:57.434Z,5.05
2022-12-07T13:10:40.368Z,5.22
2022-12-07T13:13:37.683Z,5.60
2022-12-07T13:16:49.716Z,5.95
2022-12-07T13:19:58.671Z,5.68
2022-12-07T13:22:54.705Z,9.57
2022-12-07T13:25:35.830Z,6.20
2022-12-07T13:28:14.284Z,7.05
2022-12-07T13:31:01.306Z,6.07
2022-12-07T13:33:31.734Z,7.63
2022-12-07T13:36:01.657Z,6.80
2022-12-07T13:38:36.192Z,7.72
2022-12-07T13:41:21.576Z,6.85
2022-12-07T13:43:57.533Z,7.65
2022-12-07T13:46:36.308Z,4.47
2022-12-07T13:49:18.177Z,6.53
2022-12-07T13:51:47.357Z,5.55
2022-12-07T13:54:19.010Z,5.32
2022-12-07T13:56:52.156Z,6.07
2022-12-07T13:59:23.850Z,5.75
2022-12-07T14:01:54.761Z,5.78
2022-12-07T14:04:35.224Z,6.82
2022-12-07T14:07:22.638Z,5.32
2022-12-07T14:10:01.291Z,5.05
2022-12-07T14:12:32.622Z,5.30
2022-12-07T14:15:03.895Z,5.30
2022-12-07T14:17:33.210Z,5.05
2022-12-07T14:20:03.692Z,4.50
2022-12-07T14:22:35.993Z,7.20
2022-12-07T14:25:23.000Z,5.63
2022-12-07T14:28:02.969Z,5.13
2022-12-07T14:30:34.618Z,7.38
2022-12-07T14:33:06.732Z,5.35
2022-12-07T14:35:36.359Z,5.88
2022-12-07T14:38:05.492Z,8.20
2022-12-07T14:40:36.644Z,6.50
2022-12-07T14:43:08.759Z,6.00
2022-12-07T14:45:38.468Z,6.45
2022-12-07T14:53:55.193Z,4.55
2022-12-07T14:56:29.175Z,5.38
2022-12-07T14:58:58.664Z,4.30
2022-12-07T15:01:28.268Z,4.53
2022-12-07T15:03:57.671Z,6.50
2022-12-07T15:06:27.238Z,7.18
2022-12-07T15:08:56.470Z,4.22
2022-12-07T15:11:27.383Z,5.05
2022-12-07T15:14:12.449Z,4.63
2022-12-07T15:17:07.241Z,5.13
2022-12-07T15:19:33.050Z,6.13
2022-12-07T15:22:02.477Z,3.63
2022-12-07T15:24:32.389Z,4.47
2022-12-07T15:27:03.180Z,3.50
2022-12-07T15:29:32.566Z,4.63
2022-12-07T15:32:02.016Z,4.07
2022-12-07T15:34:39.526Z,4.07
2022-12-07T15:37:10.158Z,4.80
2022-12-07T15:39:39.750Z,6.03
2022-12-07T15:42:10.678Z,4.90
2022-12-07T15:44:57.032Z,3.60
2022-12-07T15:47:26.374Z,4.93
2022-12-07T15:49:56.912Z,4.47
2022-12-07T15:52:26.464Z,5.00
2022-12-07T15:54:55.820Z,4.57
2022-12-07T15:57:26.658Z,5.82
2022-12-07T15:59:55.815Z,4.78
2022-12-07T16:02:25.639Z,5.22
2022-12-07T16:04:55.346Z,7.63
2022-12-07T16:07:24.706Z,4.82
2022-12-07T16:09:53.913Z,4.90
2022-12-07T16:12:26.250Z,4.85
2022-12-07T16:14:55.558Z,4.93
2022-12-07T16:17:25.286Z,5.13
2022-12-07T16:19:54.526Z,3.55
2022-12-07T16:22:24.637Z,4.10
2022-12-07T16:24:53.771Z,2.80
2022-12-07T16:27:23.249Z,3.22
2022-12-07T16:29:54.110Z,3.08
2022-12-07T16:32:23.477Z,2.90
2022-12-07T16:34:52.672Z,3.50
2022-12-07T16:37:21.945Z,3.22
2022-12-07T16:39:51.333Z,3.28
2022-12-07T16:42:20.753Z,4.07
2022-12-07T16:44:50.032Z,3.50
2022-12-07T16:47:20.854Z,3.63
2022-12-07T16:49:49.920Z,3.85
2022-12-07T16:52:21.037Z,3.20
2022-12-07T16:54:51.356Z,4.25
2022-12-07T16:57:23.539Z,2.53
2022-12-07T16:59:53.870Z,3.35
2022-12-07T17:02:24.719Z,3.00
2022-12-07T17:04:54.323Z,3.13
2022-12-07T17:07:24.375Z,3.60
2022-12-07T17:09:55.499Z,3.20
2022-12-07T17:12:24.791Z,2.85
2022-12-07T17:15:11.360Z,3.13
2022-12-07T17:17:42.966Z,2.45
2022-12-07T17:20:12.771Z,3.03
2022-12-07T17:22:42.286Z,2.75
2022-12-07T17:25:12.194Z,2.38
2022-12-07T17:27:41.912Z,3.17
2022-12-07T17:30:12.572Z,2.83
2022-12-07T17:32:43.368Z,3.97
2022-12-07T17:35:12.563Z,5.30
2022-12-07T17:37:44.894Z,4.32
2022-12-07T17:40:18.234Z,5.30
2022-12-07T17:42:51.424Z,3.80
2022-12-07T17:45:20.577Z,3.53
2022-12-07T17:47:51.353Z,4.25
2022-12-07T17:50:41.672Z,4.75
2022-12-07T17:53:12.543Z,4.22
2022-12-07T17:56:19.458Z,3.08
2022-12-07T17:58:31.280Z,3.83
2022-12-07T18:01:00.504Z,3.67
2022-12-07T18:03:31.533Z,2.85
2022-12-07T18:06:02.705Z,3.50
2022-12-07T18:08:35.844Z,2.80
2022-12-07T18:11:05.364Z,4.15
2022-12-07T18:13:38.836Z,3.60
2022-12-07T18:16:10.618Z,3.30
2022-12-07T18:18:45.274Z,2.90
2022-12-07T18:21:18.941Z,1.80
2022-12-07T18:23:50.380Z,2.50
2022-12-07T18:26:22.841Z,2.55
2022-12-07T18:28:52.464Z,3.03
2022-12-07T18:31:21.840Z,2.63
2022-12-07T18:33:56.090Z,2.08
2022-12-07T18:36:25.885Z,2.95
2022-12-07T18:38:55.536Z,2.88
2022-12-07T18:41:24.691Z,2.50
2022-12-07T18:43:54.291Z,2.58
2022-12-07T18:46:23.532Z,4.40
2022-12-07T18:48:57.090Z,4.30
2022-12-07T18:51:30.516Z,6.68
2022-12-07T18:54:02.391Z,4.57
2022-12-07T18:56:32.475Z,15.32
2022-12-07T18:59:20.925Z,14.85
2022-12-07T19:01:52.224Z,6.63
2022-12-07T19:04:23.801Z,10.93
2022-12-07T19:06:53.234Z,6.05
2022-12-07T19:09:22.852Z,4.07
2022-12-07T19:11:52.931Z,3.33
2022-12-07T19:14:25.814Z,5.35
2022-12-07T19:16:57.486Z,3.10
2022-12-07T19:19:33.385Z,2.25
2022-12-07T19:22:03.383Z,2.50
2022-12-07T19:24:33.677Z,2.30
2022-12-07T19:27:03.160Z,2.53
2022-12-07T19:29:33.849Z,2.83
2022-12-07T19:32:04.918Z,2.45
2022-12-07T19:34:35.669Z,2.40
2022-12-07T19:37:06.320Z,3.58
2022-12-07T19:39:35.748Z,2.90
2022-12-07T19:42:05.483Z,2.65
2022-12-07T19:44:35.187Z,2.00
2022-12-07T19:47:05.960Z,2.63
2022-12-07T19:49:37.890Z,2.85
2022-12-07T19:52:09.179Z,2.40
2022-12-07T19:54:39.765Z,2.67
2022-12-07T19:57:15.096Z,2.50
2022-12-07T19:59:46.328Z,2.75
2022-12-07T20:02:16.757Z,2.20
2022-12-07T20:04:48.482Z,2.17
2022-12-07T20:07:18.040Z,2.80
2022-12-07T20:09:47.431Z,1.92
2022-12-07T20:12:34.405Z,1.25
2022-12-07T20:15:03.973Z,1.58
2022-12-07T20:17:34.327Z,1.92
2022-12-07T20:20:05.720Z,1.70
2022-12-07T20:22:34.898Z,1.85
2022-12-07T20:25:05.261Z,1.65
2022-12-07T20:27:34.533Z,1.67
2022-12-07T20:30:03.965Z,2.25
2022-12-07T20:32:33.344Z,1.90
2022-12-07T20:35:04.380Z,2.08
2022-12-07T20:37:33.675Z,1.80
2022-12-07T20:40:03.007Z,1.55
2022-12-07T20:42:37.054Z,1.77
2022-12-07T20:45:09.539Z,1.60
2022-12-07T20:47:39.039Z,1.60
2022-12-07T20:50:11.040Z,2.10
2022-12-07T20:52:41.126Z,2.08
2022-12-07T20:55:10.862Z,9.27
2022-12-07T20:57:40.059Z,1.85
2022-12-07T21:00:10.898Z,2.45
2022-12-07T21:02:41.676Z,1.80
2022-12-07T21:05:12.989Z,1.70
2022-12-07T21:07:42.323Z,1.50
2022-12-07T21:10:12.386Z,1.80
2022-12-07T21:12:41.525Z,1.52
2022-12-07T21:15:11.187Z,1.60
2022-12-07T21:17:40.770Z,1.65
2022-12-07T21:20:12.525Z,1.45
2022-12-07T21:22:41.647Z,1.25
2022-12-07T21:25:11.560Z,1.60
2022-12-07T21:27:40.642Z,1.73
2022-12-07T21:30:10.824Z,1.70
2022-12-07T21:32:39.950Z,1.13
2022-12-07T21:35:09.925Z,2.13
2022-12-07T21:37:40.664Z,1.65
2022-12-07T21:40:16.474Z,1.58
2022-12-07T21:42:46.365Z,1.88
2022-12-07T21:45:15.877Z,1.20
2022-12-07T21:47:45.076Z,1.45
2022-12-07T21:50:14.763Z,2.13
2022-12-07T21:52:45.323Z,1.27
2022-12-07T21:55:14.625Z,1.52
2022-12-07T21:57:43.780Z,1.17
2022-12-07T22:00:14.748Z,1.55
2022-12-07T22:02:44.014Z,1.30
2022-12-07T22:05:13.552Z,1.40
2022-12-07T22:07:44.050Z,1.45
2022-12-07T22:10:13.497Z,1.70
2022-12-07T22:12:42.670Z,1.63
2022-12-07T22:15:11.590Z,0.95
2022-12-07T22:17:40.734Z,1.48
2022-12-07T22:20:10.780Z,1.30
2022-12-07T22:22:40.541Z,1.83
2022-12-07T22:25:12.265Z,1.50
2022-12-07T22:27:41.740Z,1.33
2022-12-07T22:30:13.397Z,1.30
2022-12-07T22:32:49.904Z,1.10
2022-12-07T22:35:19.859Z,1.17
2022-12-07T22:37:49.042Z,1.05
2022-12-07T22:40:19.928Z,1.05
2022-12-07T22:42:48.997Z,1.15
2022-12-07T22:45:18.675Z,1.10
2022-12-07T22:47:47.723Z,0.90
2022-12-07T22:50:17.100Z,1.02
2022-12-07T22:52:46.127Z,1.00
2022-12-07T22:55:15.661Z,1.20
2022-12-07T22:57:46.191Z,1.20
2022-12-07T23:00:16.727Z,1.30
2022-12-07T23:02:45.933Z,1.58
2022-12-07T23:05:15.410Z,1.20
2022-12-07T23:07:44.995Z,1.17
2022-12-07T23:10:14.613Z,1.42
2022-12-07T23:13:02.440Z,1.73
2022-12-07T23:15:34.610Z,1.60
2022-12-07T23:18:04.222Z,1.27
2022-12-07T23:20:33.843Z,1.52
2022-12-07T23:23:03.227Z,1.58
2022-12-07T23:25:33.590Z,1.80
2022-12-07T23:28:03.976Z,1.80
2022-12-07T23:30:33.381Z,1.48
2022-12-07T23:33:02.401Z,1.40
2022-12-07T23:35:31.804Z,1.40
2022-12-07T23:38:00.888Z,1.52
2022-12-07T23:40:30.501Z,1.45
2022-12-07T23:42:59.797Z,1.63
2022-12-07T23:45:30.552Z,1.52
2022-12-07T23:47:59.744Z,1.58
2022-12-07T23:50:29.104Z,1.52
2022-12-07T23:52:58.098Z,1.65
2022-12-07T23:55:27.807Z,1.20
2022-12-07T23:57:56.896Z,2.10
